createdAt,value
2018-12-04T00:02:08.780Z,9.70
2018-12-04T00:04:38.645Z,9.70
2018-12-04T00:07:50.659Z,9.70
2018-12-04T00:10:19.411Z,9.70
2018-12-04T00:12:48.142Z,9.70
2018-12-04T00:15:16.945Z,9.70
2018-12-04T00:17:45.662Z,9.70
2018-12-04T00:20:14.454Z,9.70
2018-12-04T00:22:43.193Z,9.70
2018-12-04T00:25:11.979Z,9.70
2018-12-04T00:27:40.786Z,9.70
2018-12-04T00:30:09.939Z,9.70
2018-12-04T00:32:38.670Z,9.70
2018-12-04T00:35:07.468Z,9.70
2018-12-04T00:37:36.130Z,9.70
2018-12-04T00:40:06.411Z,9.70
2018-12-04T00:42:35.227Z,9.70
2018-12-04T00:45:04.571Z,9.70
2018-12-04T00:47:33.437Z,9.60
2018-12-04T00:50:02.246Z,9.60
2018-12-04T00:52:31.103Z,9.60
2018-12-04T00:54:59.788Z,9.60
2018-12-04T00:57:28.530Z,9.60
2018-12-04T00:59:57.242Z,9.60
2018-12-04T01:02:26.029Z,9.70
2018-12-04T01:04:54.942Z,9.70
2018-12-04T01:07:23.762Z,9.70
2018-12-04T01:09:52.538Z,9.70
2018-12-04T01:12:21.362Z,9.40
2018-12-04T01:14:50.150Z,9.50
2018-12-04T01:17:18.855Z,9.60
2018-12-04T01:19:47.583Z,9.50
2018-12-04T01:22:16.292Z,9.50
2018-12-04T01:24:45.076Z,9.60
2018-12-04T01:27:13.786Z,9.60
2018-12-04T01:29:42.590Z,9.60
2018-12-04T01:32:11.383Z,9.50
2018-12-04T01:34:40.118Z,9.40
2018-12-04T01:37:08.962Z,9.40
2018-12-04T01:39:37.679Z,9.40
2018-12-04T01:42:06.466Z,9.20
2018-12-04T01:44:35.214Z,9.20
2018-12-04T01:47:04.019Z,9.30
2018-12-04T01:49:32.742Z,9.40
2018-12-04T01:52:01.589Z,9.40
2018-12-04T01:54:30.434Z,9.40
2018-12-04T01:56:59.135Z,9.40
2018-12-04T01:59:27.794Z,9.30
2018-12-04T02:01:56.455Z,9.30
2018-12-04T02:04:25.150Z,9.40
2018-12-04T02:06:53.868Z,9.40
2018-12-04T02:09:22.610Z,9.30
2018-12-04T02:11:51.323Z,9.30
2018-12-04T02:14:20.073Z,9.40
2018-12-04T02:16:48.854Z,9.40
2018-12-04T02:19:17.728Z,9.20
2018-12-04T02:21:46.500Z,9.20
2018-12-04T02:24:15.141Z,9.20
2018-12-04T02:26:43.858Z,9.20
2018-12-04T02:29:12.649Z,9.20
2018-12-04T02:31:41.374Z,9.20
2018-12-04T02:34:10.102Z,9.20
2018-12-04T02:36:38.867Z,9.20
2018-12-04T02:39:07.862Z,9.20
2018-12-04T02:41:36.799Z,9.20
2018-12-04T02:44:05.617Z,9.20
2018-12-04T02:46:34.488Z,9.20
2018-12-04T02:49:03.206Z,9.20
2018-12-04T02:51:31.979Z,9.10
2018-12-04T02:54:00.804Z,9.10
2018-12-04T02:56:29.534Z,9.10
2018-12-04T02:58:58.342Z,9.20
2018-12-04T03:01:27.145Z,9.20
2018-12-04T03:03:55.867Z,9.20
2018-12-04T03:06:24.613Z,9.20
2018-12-04T03:08:53.319Z,9.20
2018-12-04T03:11:22.009Z,9.20
2018-12-04T03:13:50.704Z,9.20
2018-12-04T03:16:19.570Z,9.20
2018-12-04T03:18:48.323Z,9.10
2018-12-04T03:21:16.974Z,9.20
2018-12-04T03:23:45.713Z,9.20
2018-12-04T03:26:14.496Z,9.20
2018-12-04T03:28:43.229Z,9.10
2018-12-04T03:31:12.010Z,9.20
2018-12-04T03:33:41.354Z,9.20
2018-12-04T03:36:10.074Z,9.10
2018-12-04T03:38:38.802Z,9.10
2018-12-04T03:41:07.570Z,9.10
2018-12-04T03:43:36.255Z,9.10
2018-12-04T03:46:04.957Z,9.00
2018-12-04T03:48:33.713Z,9.10
2018-12-04T03:51:02.517Z,8.90
2018-12-04T03:53:31.302Z,8.70
2018-12-04T03:56:00.038Z,8.60
2018-12-04T03:58:28.848Z,8.50
2018-12-04T04:00:57.562Z,8.60
2018-12-04T04:03:26.377Z,8.60
2018-12-04T04:05:55.093Z,8.50
2018-12-04T04:08:23.882Z,8.50
2018-12-04T04:10:52.521Z,8.50
2018-12-04T04:13:21.170Z,8.70
2018-12-04T04:15:49.970Z,8.70
2018-12-04T04:18:18.777Z,8.80
2018-12-04T04:20:48.675Z,8.90
2018-12-04T04:23:17.469Z,8.90
2018-12-04T04:25:46.194Z,8.90
2018-12-04T04:28:15.024Z,9.00
2018-12-04T04:30:43.769Z,9.00
2018-12-04T04:33:12.436Z,9.00
2018-12-04T04:35:43.006Z,9.00
2018-12-04T04:38:11.873Z,9.00
2018-12-04T04:40:40.680Z,8.90
2018-12-04T04:43:09.526Z,8.80
2018-12-04T04:45:38.343Z,8.90
2018-12-04T04:48:07.032Z,8.80
2018-12-04T04:50:35.783Z,8.80
2018-12-04T04:53:04.437Z,8.80
2018-12-04T04:55:33.166Z,8.80
2018-12-04T04:58:01.897Z,8.80
2018-12-04T05:00:30.633Z,8.70
2018-12-04T05:02:59.350Z,8.70
2018-12-04T05:05:30.105Z,8.70
2018-12-04T05:07:58.759Z,8.70
2018-12-04T05:10:27.525Z,8.70
2018-12-04T05:12:56.171Z,8.70
2018-12-04T05:15:24.902Z,8.70
2018-12-04T05:17:54.671Z,8.60
2018-12-04T05:20:23.495Z,8.60
2018-12-04T05:22:52.303Z,8.60
2018-12-04T05:25:21.086Z,8.60
2018-12-04T05:27:49.947Z,8.50
2018-12-04T05:30:18.683Z,8.60
2018-12-04T05:32:47.335Z,8.60
2018-12-04T05:35:16.047Z,8.50
2018-12-04T05:37:44.816Z,8.60
2018-12-04T05:40:13.595Z,8.60
2018-12-04T05:42:42.318Z,8.60
2018-12-04T05:45:11.071Z,8.50
2018-12-04T05:47:39.739Z,8.50
2018-12-04T05:50:08.799Z,8.50
2018-12-04T05:52:37.660Z,8.50
2018-12-04T05:55:06.484Z,8.40
2018-12-04T05:57:35.332Z,8.40
2018-12-04T06:00:06.190Z,8.40
2018-12-04T06:02:34.894Z,8.40
2018-12-04T06:05:03.710Z,8.50
2018-12-04T06:07:32.479Z,8.50
2018-12-04T06:10:01.288Z,8.50
2018-12-04T06:12:30.011Z,8.50
2018-12-04T06:14:58.761Z,8.50
2018-12-04T06:17:27.474Z,8.40
2018-12-04T06:19:56.173Z,8.50
2018-12-04T06:22:24.946Z,8.50
2018-12-04T06:24:54.090Z,8.50
2018-12-04T06:27:22.822Z,8.40
2018-12-04T06:29:51.558Z,8.40
2018-12-04T06:32:20.324Z,8.50
2018-12-04T06:34:49.086Z,8.50
2018-12-04T06:37:17.882Z,8.40
2018-12-04T06:39:46.557Z,8.40
2018-12-04T06:42:15.354Z,8.40
2018-12-04T06:44:46.784Z,8.50
2018-12-04T06:47:14.842Z,8.50
2018-12-04T06:49:43.587Z,8.40
2018-12-04T06:52:12.326Z,8.00
2018-12-04T06:54:40.978Z,7.70
2018-12-04T06:57:09.782Z,7.90
2018-12-04T06:59:38.514Z,7.90
2018-12-04T07:02:07.324Z,8.00
2018-12-04T07:04:36.007Z,8.10
2018-12-04T07:07:04.824Z,8.20
2018-12-04T07:09:33.695Z,8.20
2018-12-04T07:12:02.738Z,8.20
2018-12-04T07:14:31.608Z,8.30
2018-12-04T07:17:00.527Z,8.30
2018-12-04T07:19:29.252Z,8.30
2018-12-04T07:21:58.086Z,8.20
2018-12-04T07:24:26.715Z,8.30
2018-12-04T07:26:55.387Z,8.30
2018-12-04T07:29:24.153Z,8.30
2018-12-04T07:31:52.949Z,8.30
2018-12-04T07:34:21.738Z,8.20
2018-12-04T07:36:50.488Z,8.20
2018-12-04T07:39:19.294Z,8.20
2018-12-04T07:41:47.961Z,8.20
2018-12-04T07:44:16.688Z,8.20
2018-12-04T07:46:45.428Z,8.20
2018-12-04T07:49:14.184Z,8.10
2018-12-04T07:51:44.432Z,8.20
2018-12-04T07:54:13.166Z,8.20
2018-12-04T07:56:41.879Z,8.20
2018-12-04T07:59:10.571Z,8.20
2018-12-04T08:01:39.382Z,8.20
2018-12-04T08:04:08.011Z,8.20
2018-12-04T08:06:36.756Z,8.20
2018-12-04T08:09:08.184Z,8.20
2018-12-04T08:11:36.951Z,8.20
2018-12-04T08:14:05.723Z,8.30
2018-12-04T08:16:34.535Z,8.20
2018-12-04T08:19:03.264Z,8.30
2018-12-04T08:21:32.138Z,8.30
2018-12-04T08:24:00.933Z,8.30
2018-12-04T08:26:29.842Z,8.20
2018-12-04T08:28:58.502Z,7.90
2018-12-04T08:31:27.226Z,7.90
2018-12-04T08:33:55.962Z,7.90
2018-12-04T08:36:24.771Z,8.00
2018-12-04T08:38:53.466Z,8.00
2018-12-04T08:41:22.250Z,8.10
2018-12-04T08:43:50.977Z,8.10
2018-12-04T08:46:19.691Z,8.20
2018-12-04T08:48:48.516Z,8.10
2018-12-04T08:51:17.274Z,8.20
2018-12-04T08:53:46.037Z,8.20
2018-12-04T08:56:14.800Z,8.20
2018-12-04T08:58:43.598Z,8.20
2018-12-04T09:01:12.384Z,8.20
2018-12-04T09:03:41.219Z,8.30
2018-12-04T09:06:12.366Z,8.30
2018-12-04T09:08:41.352Z,8.30
2018-12-04T09:11:10.130Z,8.30
2018-12-04T09:13:38.929Z,8.40
2018-12-04T09:16:07.742Z,8.40
2018-12-04T09:18:36.492Z,8.50
2018-12-04T09:21:05.329Z,8.50
2018-12-04T09:23:34.123Z,8.50
2018-12-04T09:26:02.974Z,8.60
2018-12-04T09:28:31.846Z,8.60
2018-12-04T09:31:00.590Z,8.70
2018-12-04T09:33:29.353Z,8.70
2018-12-04T09:35:59.156Z,8.70
2018-12-04T09:38:27.851Z,8.60
2018-12-04T09:40:56.646Z,8.60
2018-12-04T09:43:25.421Z,8.50
2018-12-04T09:45:54.180Z,8.50
2018-12-04T09:48:22.887Z,8.50
2018-12-04T09:50:51.773Z,8.50
2018-12-04T09:53:25.207Z,8.60
2018-12-04T09:55:51.195Z,8.50
2018-12-04T09:58:20.009Z,8.60
2018-12-04T10:00:48.735Z,8.70
2018-12-04T10:03:17.435Z,8.80
2018-12-04T10:05:46.169Z,8.70
2018-12-04T10:08:14.966Z,8.60
2018-12-04T10:10:43.760Z,8.60
2018-12-04T10:13:12.498Z,8.70
2018-12-04T10:15:41.258Z,8.60
2018-12-04T10:18:09.939Z,8.40
2018-12-04T10:20:38.722Z,8.20
2018-12-04T10:23:07.458Z,8.20
2018-12-04T10:25:38.222Z,8.10
2018-12-04T10:28:06.883Z,8.00
2018-12-04T10:30:35.682Z,8.00
2018-12-04T10:33:04.487Z,8.10
2018-12-04T10:35:33.200Z,7.90
2018-12-04T10:38:02.034Z,7.90
2018-12-04T10:40:30.791Z,7.80
2018-12-04T10:42:59.474Z,7.80
2018-12-04T10:45:28.265Z,7.90
2018-12-04T10:47:56.981Z,7.90
2018-12-04T10:50:25.827Z,7.90
2018-12-04T10:52:54.503Z,7.90
2018-12-04T10:55:23.255Z,8.10
2018-12-04T10:57:51.990Z,8.10
2018-12-04T11:00:26.117Z,8.10
2018-12-04T11:02:59.085Z,8.10
2018-12-04T11:05:27.834Z,8.20
2018-12-04T11:07:56.490Z,8.20
2018-12-04T11:10:25.249Z,8.20
2018-12-04T11:12:54.076Z,8.10
2018-12-04T11:15:22.818Z,8.20
2018-12-04T11:17:51.505Z,8.20
2018-12-04T11:20:20.214Z,8.20
2018-12-04T11:22:48.890Z,8.20
2018-12-04T11:25:17.666Z,8.20
2018-12-04T11:27:46.485Z,8.20
2018-12-04T11:30:15.243Z,8.20
2018-12-04T11:32:44.032Z,8.10
2018-12-04T11:35:12.855Z,8.00
2018-12-04T11:37:41.562Z,7.90
2018-12-04T11:40:10.328Z,8.00
2018-12-04T11:42:39.215Z,8.00
2018-12-04T11:45:08.763Z,7.80
2018-12-04T11:47:37.604Z,7.70
2018-12-04T11:50:06.705Z,7.70
2018-12-04T11:52:35.394Z,7.70
2018-12-04T11:55:04.299Z,7.90
2018-12-04T11:57:33.141Z,7.80
2018-12-04T12:00:01.991Z,7.80
2018-12-04T12:02:31.708Z,7.90
2018-12-04T12:05:00.575Z,8.00
2018-12-04T12:07:31.247Z,8.00
2018-12-04T12:10:00.921Z,8.20
2018-12-04T12:12:30.203Z,8.20
2018-12-04T12:14:58.944Z,8.20
2018-12-04T12:17:27.719Z,8.30
2018-12-04T12:19:56.598Z,8.30
2018-12-04T12:22:25.351Z,8.40
2018-12-04T12:24:54.070Z,8.40
2018-12-04T12:27:22.810Z,8.40
2018-12-04T12:29:51.544Z,8.20
2018-12-04T12:32:20.390Z,8.20
2018-12-04T12:34:49.111Z,8.30
2018-12-04T12:37:17.970Z,8.30
2018-12-04T12:39:46.722Z,8.30
2018-12-04T12:42:15.442Z,8.20
2018-12-04T12:44:44.159Z,8.30
2018-12-04T12:47:12.875Z,8.20
2018-12-04T12:49:41.687Z,8.20
2018-12-04T12:52:10.489Z,8.30
2018-12-04T12:54:39.259Z,8.20
2018-12-04T12:57:07.991Z,8.30
2018-12-04T12:59:36.775Z,8.40
2018-12-04T13:02:05.592Z,8.40
2018-12-04T13:04:34.344Z,8.40
2018-12-04T13:07:03.149Z,8.50
2018-12-04T13:09:31.894Z,8.50
2018-12-04T13:12:00.606Z,8.50
2018-12-04T13:14:29.353Z,8.40
2018-12-04T13:16:58.062Z,8.40
2018-12-04T13:19:26.857Z,8.50
2018-12-04T13:21:55.577Z,8.50
2018-12-04T13:24:24.410Z,8.50
2018-12-04T13:26:54.223Z,8.40
2018-12-04T13:29:23.003Z,8.50
2018-12-04T13:31:51.903Z,8.40
2018-12-04T13:34:20.679Z,8.40
2018-12-04T13:36:49.394Z,8.40
2018-12-04T13:39:18.174Z,8.40
2018-12-04T13:41:46.908Z,8.50
2018-12-04T13:44:15.770Z,8.50
2018-12-04T13:46:44.554Z,8.50
2018-12-04T13:49:14.415Z,8.40
2018-12-04T13:51:43.145Z,8.50
2018-12-04T13:54:11.930Z,8.50
2018-12-04T13:56:40.727Z,8.50
2018-12-04T13:59:09.502Z,8.50
2018-12-04T14:01:38.347Z,8.50
2018-12-04T14:04:07.221Z,8.50
2018-12-04T14:06:36.081Z,8.50
2018-12-04T14:09:06.733Z,8.50
2018-12-04T14:11:37.373Z,8.60
2018-12-04T14:14:06.111Z,8.60
2018-12-04T14:16:34.951Z,8.60
2018-12-04T14:19:03.805Z,8.70
2018-12-04T14:21:32.597Z,8.70
2018-12-04T14:24:01.598Z,8.70
2018-12-04T14:26:30.690Z,8.60
2018-12-04T14:28:59.425Z,8.50
2018-12-04T14:31:28.295Z,8.50
2018-12-04T14:33:56.995Z,8.50
2018-12-04T14:36:25.921Z,8.50
2018-12-04T14:38:54.790Z,8.50
2018-12-04T14:41:23.578Z,8.50
2018-12-04T14:43:52.333Z,8.50
2018-12-04T14:46:21.124Z,8.50
2018-12-04T14:48:49.965Z,8.50
2018-12-04T14:51:18.719Z,8.50
2018-12-04T14:53:47.597Z,8.50
2018-12-04T14:56:16.392Z,8.50
2018-12-04T14:58:45.218Z,8.50
2018-12-04T15:01:13.985Z,8.50
2018-12-04T15:03:42.949Z,8.50
2018-12-04T15:06:11.788Z,8.40
2018-12-04T15:08:40.630Z,8.40
2018-12-04T15:11:09.364Z,8.30
2018-12-04T15:13:38.086Z,8.30
2018-12-04T15:16:06.948Z,8.40
2018-12-04T15:18:35.782Z,8.40
2018-12-04T15:21:04.586Z,8.30
2018-12-04T15:23:33.435Z,8.40
2018-12-04T15:26:02.339Z,8.30
2018-12-04T15:28:31.161Z,8.30
2018-12-04T15:30:59.892Z,8.30
2018-12-04T15:33:28.750Z,8.30
2018-12-04T15:35:57.553Z,8.30
2018-12-04T15:38:26.406Z,8.30
2018-12-04T15:40:55.082Z,8.30
2018-12-04T15:43:23.832Z,8.30
2018-12-04T15:45:52.704Z,8.30
2018-12-04T15:48:21.545Z,8.30
2018-12-04T15:50:50.332Z,8.30
2018-12-04T15:53:19.298Z,8.30
2018-12-04T15:55:48.265Z,8.30
2018-12-04T15:58:17.076Z,8.20
2018-12-04T16:00:45.862Z,8.20
2018-12-04T16:03:14.611Z,8.20
2018-12-04T16:05:43.402Z,8.20
2018-12-04T16:08:12.102Z,8.10
2018-12-04T16:10:40.880Z,8.10
2018-12-04T16:13:09.599Z,8.10
2018-12-04T16:15:38.330Z,8.00
2018-12-04T16:18:07.076Z,8.00
2018-12-04T16:20:35.906Z,8.10
2018-12-04T16:23:04.684Z,8.00
2018-12-04T16:25:33.638Z,8.10
2018-12-04T16:28:03.713Z,8.00
2018-12-04T16:30:32.550Z,8.00
2018-12-04T16:33:01.246Z,8.00
2018-12-04T16:35:30.007Z,8.00
2018-12-04T16:37:58.794Z,8.00
2018-12-04T16:40:27.600Z,8.00
2018-12-04T16:42:56.308Z,8.00
2018-12-04T16:45:24.974Z,8.00
2018-12-04T16:47:53.769Z,8.00
2018-12-04T16:50:22.584Z,8.00
2018-12-04T16:52:51.310Z,8.00
2018-12-04T16:55:20.013Z,8.00
2018-12-04T16:57:48.657Z,8.00
2018-12-04T17:00:17.526Z,8.00
2018-12-04T17:02:46.266Z,8.00
2018-12-04T17:05:15.080Z,8.00
2018-12-04T17:07:43.817Z,8.00
2018-12-04T17:10:12.562Z,7.90
2018-12-04T17:12:41.299Z,7.90
2018-12-04T17:15:10.358Z,7.90
2018-12-04T17:17:39.195Z,7.90
2018-12-04T17:20:08.773Z,7.90
2018-12-04T17:22:37.550Z,7.90
2018-12-04T17:25:06.347Z,7.90
2018-12-04T17:27:35.034Z,7.80
2018-12-04T17:30:04.170Z,7.80
2018-12-04T17:32:33.075Z,7.90
2018-12-04T17:35:01.812Z,7.80
2018-12-04T17:37:31.007Z,7.70
2018-12-04T17:39:59.771Z,7.80
2018-12-04T17:42:28.604Z,7.80
2018-12-04T17:44:57.289Z,7.80
2018-12-04T17:47:26.082Z,7.80
2018-12-04T17:49:54.898Z,7.80
2018-12-04T17:52:23.646Z,7.80
2018-12-04T17:54:52.391Z,7.80
2018-12-04T17:57:21.087Z,7.70
2018-12-04T17:59:51.702Z,7.70
2018-12-04T18:02:22.465Z,7.70
2018-12-04T18:04:51.251Z,7.70
2018-12-04T18:07:22.002Z,7.70
2018-12-04T18:09:50.724Z,7.70
2018-12-04T18:12:21.362Z,7.70
2018-12-04T18:14:52.018Z,7.60
2018-12-04T18:17:20.732Z,7.60
2018-12-04T18:19:49.472Z,7.70
2018-12-04T18:22:20.059Z,7.60
2018-12-04T18:24:49.152Z,7.60
2018-12-04T18:27:18.857Z,7.60
2018-12-04T18:29:47.596Z,7.60
2018-12-04T18:32:16.407Z,7.50
2018-12-04T18:34:45.175Z,7.50
2018-12-04T18:37:13.964Z,7.50
2018-12-04T18:39:42.737Z,7.50
2018-12-04T18:42:11.500Z,7.50
2018-12-04T18:44:40.214Z,7.50
2018-12-04T18:47:09.002Z,7.50
2018-12-04T18:49:37.874Z,7.50
2018-12-04T18:52:06.615Z,7.50
2018-12-04T18:54:35.430Z,7.40
2018-12-04T18:57:04.235Z,7.40
2018-12-04T18:59:32.959Z,7.40
2018-12-04T19:02:01.714Z,7.40
2018-12-04T19:04:32.351Z,7.40
2018-12-04T19:07:01.102Z,7.40
2018-12-04T19:09:29.847Z,7.40
2018-12-04T19:11:58.752Z,7.40
2018-12-04T19:14:27.550Z,7.30
2018-12-04T19:16:56.254Z,7.30
2018-12-04T19:19:25.019Z,7.30
2018-12-04T19:21:53.790Z,7.30
2018-12-04T19:24:23.176Z,7.30
2018-12-04T19:26:51.894Z,7.20
2018-12-04T19:29:20.649Z,7.30
2018-12-04T19:31:50.134Z,7.30
2018-12-04T19:34:18.974Z,7.20
2018-12-04T19:36:47.704Z,7.20
2018-12-04T19:39:16.473Z,7.30
2018-12-04T19:41:45.155Z,7.30
2018-12-04T19:44:13.942Z,7.30
2018-12-04T19:46:42.655Z,7.30
2018-12-04T19:49:11.432Z,7.30
2018-12-04T19:51:40.139Z,7.30
2018-12-04T19:54:08.944Z,7.20
2018-12-04T19:56:37.659Z,7.20
2018-12-04T19:59:07.492Z,7.20
2018-12-04T20:01:36.207Z,7.20
2018-12-04T20:04:05.043Z,7.20
2018-12-04T20:06:33.708Z,7.20
2018-12-04T20:09:04.607Z,7.20
2018-12-04T20:11:35.269Z,7.20
2018-12-04T20:14:04.200Z,7.20
2018-12-04T20:16:32.969Z,7.20
2018-12-04T20:19:01.791Z,7.10
2018-12-04T20:21:31.652Z,7.10
2018-12-04T20:24:00.439Z,7.10
2018-12-04T20:26:29.158Z,7.10
2018-12-04T20:28:57.864Z,7.00
2018-12-04T20:31:26.683Z,7.10
2018-12-04T20:33:55.547Z,7.10
2018-12-04T20:36:24.258Z,7.10
2018-12-04T20:38:53.405Z,7.10
2018-12-04T20:41:22.175Z,7.10
2018-12-04T20:43:51.872Z,7.00
2018-12-04T20:46:20.766Z,6.90
2018-12-04T20:48:49.786Z,7.00
2018-12-04T20:51:18.459Z,6.90
2018-12-04T20:53:47.323Z,6.90
2018-12-04T20:56:16.050Z,6.80
2018-12-04T20:58:45.022Z,6.90
2018-12-04T21:01:13.813Z,6.90
2018-12-04T21:03:42.530Z,6.90
2018-12-04T21:06:11.256Z,6.90
2018-12-04T21:08:40.113Z,6.90
2018-12-04T21:11:08.815Z,6.90
2018-12-04T21:13:37.538Z,6.90
2018-12-04T21:16:06.326Z,6.90
2018-12-04T21:18:35.062Z,6.90
2018-12-04T21:21:04.103Z,6.90
2018-12-04T21:23:32.812Z,6.90
2018-12-04T21:26:01.682Z,6.90
2018-12-04T21:28:30.471Z,6.90
2018-12-04T21:31:04.686Z,6.90
2018-12-04T21:33:38.846Z,6.90
2018-12-04T21:36:12.989Z,6.90
2018-12-04T21:38:47.183Z,6.90
2018-12-04T21:41:20.188Z,6.90
2018-12-04T21:43:54.359Z,7.00
2018-12-04T21:46:28.435Z,7.00
2018-12-04T21:48:57.222Z,7.00
2018-12-04T21:51:26.041Z,7.00
2018-12-04T21:53:54.744Z,7.00
2018-12-04T21:56:23.600Z,7.10
2018-12-04T21:58:52.485Z,7.00
2018-12-04T22:01:21.159Z,7.00
2018-12-04T22:03:49.813Z,6.70
2018-12-04T22:06:18.541Z,6.70
2018-12-04T22:08:47.360Z,6.70
2018-12-04T22:11:16.066Z,6.70
2018-12-04T22:13:44.880Z,6.80
2018-12-04T22:16:13.763Z,6.90
2018-12-04T22:18:42.430Z,6.90
2018-12-04T22:21:11.279Z,6.80
2018-12-04T22:23:39.987Z,6.90
2018-12-04T22:26:08.778Z,6.90
2018-12-04T22:28:37.432Z,6.90
2018-12-04T22:31:06.274Z,6.90
2018-12-04T22:33:35.046Z,7.00
2018-12-04T22:36:03.838Z,7.00
2018-12-04T22:38:32.483Z,7.00
2018-12-04T22:41:01.230Z,7.00
2018-12-04T22:43:29.944Z,7.00
2018-12-04T22:45:58.673Z,7.00
2018-12-04T22:48:27.417Z,7.00
2018-12-04T22:50:56.365Z,7.00
2018-12-04T22:53:25.049Z,7.00
2018-12-04T22:55:53.887Z,7.00
2018-12-04T22:58:22.691Z,7.00
2018-12-04T23:00:52.078Z,7.00
2018-12-04T23:03:20.968Z,7.00
2018-12-04T23:05:49.674Z,7.00
2018-12-04T23:08:18.603Z,6.90
2018-12-04T23:10:47.401Z,6.90
2018-12-04T23:13:16.135Z,7.00
2018-12-04T23:15:44.944Z,7.00
2018-12-04T23:18:13.696Z,7.00
2018-12-04T23:20:42.472Z,7.00
2018-12-04T23:23:11.279Z,7.00
2018-12-04T23:25:40.054Z,6.90
2018-12-04T23:28:08.786Z,6.90
2018-12-04T23:30:37.585Z,6.90
2018-12-04T23:33:06.358Z,6.90
2018-12-04T23:35:35.146Z,6.90
2018-12-04T23:38:03.950Z,6.80
2018-12-04T23:40:32.663Z,6.80
2018-12-04T23:43:01.393Z,6.80
2018-12-04T23:45:30.298Z,6.80
2018-12-04T23:47:59.043Z,6.80
2018-12-04T23:50:27.696Z,6.80
2018-12-04T23:52:56.483Z,6.80
2018-12-04T23:55:25.199Z,6.80
2018-12-04T23:57:53.883Z,6.90
